createdAt,value
2022-10-23T00:09:27.374Z,11.33
2022-10-23T00:19:30.039Z,11.34
2022-10-23T00:29:34.200Z,11.31
2022-10-23T00:39:37.001Z,11.30
2022-10-23T00:49:42.793Z,11.38
2022-10-23T00:59:45.767Z,11.39
2022-10-23T01:09:53.890Z,11.37
2022-10-23T01:20:02.784Z,11.36
2022-10-23T01:30:08.546Z,11.25
2022-10-23T01:40:20.016Z,11.08
2022-10-23T01:50:28.359Z,11.06
2022-10-23T02:00:40.051Z,11.20
2022-10-23T02:10:50.442Z,11.19
2022-10-23T02:20:56.361Z,11.16
2022-10-23T02:31:00.743Z,11.16
2022-10-23T02:41:11.490Z,11.19
2022-10-23T02:51:19.137Z,11.24
2022-10-23T03:01:24.183Z,11.28
2022-10-23T03:11:28.622Z,11.35
2022-10-23T03:21:31.698Z,11.39
2022-10-23T03:31:36.002Z,11.38
2022-10-23T03:41:38.876Z,11.39
2022-10-23T03:51:44.102Z,11.42
2022-10-23T04:01:47.177Z,11.45
2022-10-23T04:11:51.538Z,11.52
2022-10-23T04:21:54.408Z,11.52
2022-10-23T04:31:58.518Z,11.51
2022-10-23T04:42:01.249Z,11.51
2022-10-23T04:52:05.517Z,11.52
2022-10-23T05:02:14.121Z,11.55
2022-10-23T05:12:19.173Z,11.55
2022-10-23T05:22:26.606Z,11.56
2022-10-23T05:32:32.294Z,11.59
2022-10-23T05:42:37.178Z,11.67
2022-10-23T05:52:46.970Z,11.68
2022-10-23T06:03:21.842Z,11.68
2022-10-23T06:13:26.175Z,11.74
2022-10-23T06:23:29.054Z,11.74
2022-10-23T06:33:51.643Z,11.85
2022-10-23T06:43:54.838Z,11.96
2022-10-23T06:54:18.774Z,12.05
2022-10-23T07:04:41.608Z,12.17
2022-10-23T07:14:53.200Z,12.33
2022-10-23T07:24:57.444Z,12.50
2022-10-23T07:35:06.199Z,12.67
2022-10-23T07:45:11.496Z,12.86
2022-10-23T07:55:19.361Z,13.02
2022-10-23T08:05:26.207Z,13.22
2022-10-23T08:15:35.662Z,13.42
2022-10-23T08:25:48.090Z,13.65
2022-10-23T08:35:54.219Z,13.82
2022-10-23T08:46:08.619Z,13.78
2022-10-23T08:56:38.637Z,13.91
2022-10-23T09:06:43.738Z,13.98
2022-10-23T09:16:56.159Z,14.15
2022-10-23T09:27:00.601Z,14.35
2022-10-23T09:37:05.945Z,14.50
2022-10-23T09:47:11.314Z,14.54
2022-10-23T09:57:28.482Z,14.68
2022-10-23T10:07:34.664Z,14.84
2022-10-23T10:17:45.157Z,14.88
2022-10-23T10:27:53.772Z,15.06
2022-10-23T10:38:11.854Z,15.32
2022-10-23T10:48:21.761Z,15.73
2022-10-23T10:58:51.725Z,16.13
2022-10-23T11:08:58.035Z,16.69
2022-10-23T11:19:14.095Z,16.86
2022-10-23T11:29:23.903Z,17.15
2022-10-23T11:45:22.511Z,17.93
2022-10-23T11:55:30.038Z,-146.88
2022-10-23T12:05:37.832Z,-146.88
2022-10-23T12:15:42.106Z,-146.88
2022-10-23T12:26:00.754Z,-146.88
2022-10-23T12:36:22.122Z,-146.88
2022-10-23T12:46:35.201Z,-146.88
2022-10-23T12:56:42.219Z,-146.88
2022-10-23T13:06:45.859Z,-146.88
2022-10-23T13:17:00.342Z,-146.88
2022-10-23T13:27:04.016Z,-146.88
2022-10-23T13:37:25.848Z,-146.88
2022-10-23T13:47:29.006Z,-146.88
2022-10-23T13:57:36.689Z,-146.88
2022-10-23T14:07:40.056Z,-146.88
2022-10-23T14:17:44.885Z,-146.88
2022-10-23T14:27:47.997Z,-146.88
2022-10-23T14:37:52.489Z,-146.88
2022-10-23T14:47:55.428Z,-146.88
2022-10-23T14:57:59.883Z,-146.88
2022-10-23T15:08:02.826Z,-146.88
2022-10-23T15:18:07.475Z,-146.88
2022-10-23T15:28:10.986Z,-146.88
2022-10-23T15:38:16.348Z,-146.88
2022-10-23T15:48:19.514Z,-146.88
2022-10-23T15:58:23.901Z,-146.88
2022-10-23T16:08:26.922Z,-146.88
2022-10-23T16:18:31.201Z,-146.88
2022-10-23T16:28:34.126Z,-146.88
2022-10-23T16:38:39.165Z,-146.88
2022-10-23T16:48:42.706Z,-146.88
2022-10-23T16:58:47.089Z,-146.88
2022-10-23T17:08:49.882Z,-146.88
2022-10-23T17:18:54.305Z,-146.88
2022-10-23T17:28:57.969Z,-146.88
2022-10-23T17:39:02.719Z,-146.88
2022-10-23T17:49:06.235Z,-146.88
2022-10-23T17:59:13.946Z,-146.88
2022-10-23T18:09:17.665Z,-146.88
2022-10-23T18:19:22.177Z,-146.88
2022-10-23T18:29:24.972Z,-146.88
2022-10-23T18:39:29.701Z,-146.88
2022-10-23T18:49:32.657Z,-146.88
2022-10-23T18:59:37.038Z,-146.88
2022-10-23T19:09:42.524Z,-146.88
2022-10-23T19:19:49.870Z,-146.88
2022-10-23T19:29:54.202Z,-146.88
2022-10-23T19:39:58.546Z,-146.88
2022-10-23T19:50:01.477Z,-146.88
2022-10-23T20:00:08.323Z,-146.88
2022-10-23T20:10:13.787Z,-146.88
2022-10-23T20:20:20.370Z,-146.88
2022-10-23T20:30:23.381Z,-146.88
2022-10-23T20:40:27.759Z,-146.88
2022-10-23T20:50:30.709Z,-146.88
2022-10-23T21:00:35.073Z,-146.88
2022-10-23T21:10:37.961Z,-146.88
2022-10-23T21:20:42.593Z,-146.88
2022-10-23T21:30:45.560Z,-146.88
2022-10-23T21:40:50.154Z,-146.88
2022-10-23T21:50:58.206Z,-146.88
2022-10-23T22:01:02.915Z,-146.88
2022-10-23T22:11:06.095Z,-146.88
2022-10-23T22:21:12.518Z,-146.88
2022-10-23T22:31:16.953Z,-146.88
2022-10-23T22:41:21.391Z,-146.88
2022-10-23T22:51:27.266Z,-146.88
2022-10-23T23:01:33.693Z,-146.88
2022-10-23T23:11:45.766Z,-146.88
2022-10-23T23:21:58.273Z,-146.88
2022-10-23T23:32:01.246Z,-146.88
2022-10-23T23:42:05.622Z,-146.88
2022-10-23T23:52:08.559Z,-146.88
